createdAt,value
2017-11-19T00:07:25.925Z,77.4
2017-11-19T00:18:11.410Z,77.2
2017-11-19T00:28:26.049Z,77.1
2017-11-19T00:38:40.996Z,77.1
2017-11-19T00:48:54.339Z,77.3
2017-11-19T00:59:40.034Z,77.3
2017-11-19T01:09:51.351Z,77.3
2017-11-19T01:20:36.121Z,77.1
2017-11-19T01:30:49.748Z,77.2
2017-11-19T01:41:34.941Z,77.1
2017-11-19T01:51:46.767Z,77.1
2017-11-19T02:02:32.337Z,77.2
2017-11-19T02:12:43.858Z,77.3
2017-11-19T02:23:29.462Z,77.3
2017-11-19T02:33:43.859Z,77.4
2017-11-19T02:43:58.097Z,77.5
2017-11-19T02:54:10.120Z,77.8
2017-11-19T03:04:59.444Z,78.3
2017-11-19T03:15:12.892Z,78.0
2017-11-19T03:25:24.380Z,78.1
2017-11-19T03:36:09.220Z,78.3
2017-11-19T03:46:54.473Z,78.1
2017-11-19T03:57:06.518Z,78.0
2017-11-19T04:07:52.260Z,78.0
2017-11-19T04:18:05.474Z,77.7
2017-11-19T04:28:16.930Z,77.8
2017-11-19T04:38:29.487Z,77.7
2017-11-19T04:49:15.141Z,77.7
2017-11-19T04:59:29.153Z,78.4
2017-11-19T05:09:40.821Z,77.9
2017-11-19T05:20:25.986Z,78.6
2017-11-19T05:31:10.826Z,78.3
2017-11-19T05:41:22.651Z,78.0
2017-11-19T05:51:35.035Z,78.0
2017-11-19T06:02:20.193Z,78.0
2017-11-19T06:12:32.005Z,77.8
2017-11-19T06:23:17.250Z,78.0
2017-11-19T06:34:02.022Z,77.8
2017-11-19T06:44:15.905Z,77.9
2017-11-19T06:54:28.010Z,78.2
2017-11-19T07:05:17.556Z,78.9
2017-11-19T07:15:29.306Z,78.4
2017-11-19T07:26:18.057Z,78.5
2017-11-19T07:36:31.999Z,78.5
2017-11-19T07:46:54.700Z,78.5
2017-11-19T07:57:09.602Z,78.6
2017-11-19T08:07:24.614Z,79.0
2017-11-19T08:18:47.447Z,79.8
2017-11-19T08:29:33.155Z,79.8
2017-11-19T08:40:18.547Z,80.1
2017-11-19T08:50:30.127Z,79.7
2017-11-19T09:12:19.237Z,79.8
2017-11-19T09:22:30.655Z,79.4
2017-11-19T09:33:15.932Z,79.3
2017-11-19T09:43:30.059Z,79.4
2017-11-19T09:53:42.330Z,79.6
2017-11-19T10:03:53.923Z,80.0
2017-11-19T10:16:24.408Z,80.0
2017-11-19T10:26:38.743Z,80.3
2017-11-19T10:37:23.971Z,80.6
2017-11-19T10:47:40.517Z,80.7
2017-11-19T10:57:54.310Z,80.8
2017-11-19T11:08:05.894Z,82.2
2017-11-19T11:18:51.347Z,82.0
2017-11-19T11:29:03.122Z,79.8
2017-11-19T11:39:15.004Z,78.0
2017-11-19T11:49:27.303Z,76.3
2017-11-19T11:59:55.959Z,75.9
2017-11-19T12:10:41.340Z,76.0
2017-11-19T12:20:52.776Z,74.0
2017-11-19T12:31:06.860Z,73.4
2017-11-19T12:41:18.445Z,74.2
2017-11-19T12:52:06.072Z,74.2
2017-11-19T13:02:18.751Z,73.9
2017-11-19T13:12:30.914Z,74.0
2017-11-19T13:22:45.316Z,74.8
2017-11-19T13:33:38.750Z,75.1
2017-11-19T13:43:52.832Z,74.5
2017-11-19T14:02:43.962Z,74.5
2017-11-19T14:13:36.205Z,74.4
2017-11-19T14:24:25.789Z,75.8
2017-11-19T14:34:44.346Z,76.2
2017-11-19T14:44:58.430Z,75.8
2017-11-19T14:55:09.833Z,75.5
2017-11-19T15:05:23.782Z,75.4
2017-11-19T15:15:35.553Z,75.3
2017-11-19T15:25:49.482Z,75.5
2017-11-19T15:36:34.545Z,75.4
2017-11-19T15:47:20.437Z,75.4
2017-11-19T15:57:35.494Z,75.1
2017-11-19T16:07:46.476Z,75.3
2017-11-19T16:17:58.133Z,75.3
2017-11-19T16:28:43.710Z,75.3
2017-11-19T16:38:57.830Z,75.2
2017-11-19T16:49:11.036Z,75.3
2017-11-19T16:59:22.273Z,75.4
2017-11-19T17:10:10.785Z,75.9
2017-11-19T17:20:24.190Z,75.8
2017-11-19T17:31:09.239Z,75.9
2017-11-19T17:41:23.717Z,75.9
2017-11-19T17:51:36.012Z,76.4
2017-11-19T18:02:32.243Z,76.6
2017-11-19T18:13:17.564Z,76.6
2017-11-19T18:23:29.084Z,76.5
2017-11-19T18:34:17.511Z,76.4
2017-11-19T18:44:31.257Z,76.1
2017-11-19T18:55:16.965Z,76.1
2017-11-19T19:06:02.750Z,76.4
2017-11-19T19:16:16.081Z,76.5
2017-11-19T19:26:27.752Z,76.5
2017-11-19T19:36:42.249Z,76.7
2017-11-19T19:46:57.409Z,76.8
2017-11-19T19:57:42.880Z,76.8
2017-11-19T20:08:32.660Z,76.9
2017-11-19T20:18:45.200Z,77.1
2017-11-19T20:28:59.217Z,77.1
2017-11-19T20:42:47.665Z,77.3
2017-11-19T20:53:02.112Z,76.6
2017-11-19T21:03:47.285Z,77.1
2017-11-19T21:14:33.095Z,76.9
2017-11-19T21:25:18.301Z,77.0
2017-11-19T21:35:34.429Z,77.2
2017-11-19T21:46:19.578Z,77.3
2017-11-19T21:56:35.107Z,77.3
2017-11-19T22:06:49.680Z,77.3
2017-11-19T22:17:03.795Z,77.1
2017-11-19T22:27:49.187Z,77.4
2017-11-19T22:38:35.558Z,77.7
2017-11-19T22:48:49.977Z,77.5
2017-11-19T22:59:01.361Z,77.6
2017-11-19T23:09:15.962Z,77.9
2017-11-19T23:19:33.880Z,77.7
2017-11-19T23:29:47.849Z,78.2
2017-11-19T23:40:02.591Z,77.8
2017-11-19T23:50:16.557Z,78.0
